sensor_id;sensor_type;location;lat;lon;timestamp;P1;durP1;ratioP1;P2;durP2;ratioP2
33138;SDS011;19501;50.948;5.316;2023-07-20T00:01:21;20.23;;;7.82;;
33138;SDS011;19501;50.948;5.316;2023-07-20T00:03:47;19.02;;;7.30;;
33138;SDS011;19501;50.948;5.316;2023-07-20T00:06:19;20.38;;;7.80;;
33138;SDS011;19501;50.948;5.316;2023-07-20T00:08:46;22.42;;;7.25;;
33138;SDS011;19501;50.948;5.316;2023-07-20T00:11:12;17.52;;;7.22;;
33138;SDS011;19501;50.948;5.316;2023-07-20T00:13:38;16.45;;;6.90;;
33138;SDS011;19501;50.948;5.316;2023-07-20T00:16:04;19.75;;;7.72;;
33138;SDS011;19501;50.948;5.316;2023-07-20T00:18:30;19.58;;;7.88;;
33138;SDS011;19501;50.948;5.316;2023-07-20T00:20:56;18.25;;;6.95;;
33138;SDS011;19501;50.948;5.316;2023-07-20T00:23:21;17.52;;;7.22;;
33138;SDS011;19501;50.948;5.316;2023-07-20T00:25:48;17.75;;;6.75;;
33138;SDS011;19501;50.948;5.316;2023-07-20T00:28:14;18.95;;;7.03;;
33138;SDS011;19501;50.948;5.316;2023-07-20T00:30:39;18.23;;;7.43;;
33138;SDS011;19501;50.948;5.316;2023-07-20T00:33:06;21.67;;;7.30;;
33138;SDS011;19501;50.948;5.316;2023-07-20T00:35:35;18.10;;;7.18;;
33138;SDS011;19501;50.948;5.316;2023-07-20T00:38:00;19.73;;;6.55;;
33138;SDS011;19501;50.948;5.316;2023-07-20T00:40:27;17.70;;;6.90;;
33138;SDS011;19501;50.948;5.316;2023-07-20T00:42:53;20.58;;;7.13;;
33138;SDS011;19501;50.948;5.316;2023-07-20T00:45:18;18.42;;;7.32;;
33138;SDS011;19501;50.948;5.316;2023-07-20T00:47:44;21.35;;;7.28;;
33138;SDS011;19501;50.948;5.316;2023-07-20T00:50:10;18.70;;;6.95;;
33138;SDS011;19501;50.948;5.316;2023-07-20T00:52:35;20.50;;;7.70;;
33138;SDS011;19501;50.948;5.316;2023-07-20T00:55:04;19.70;;;7.20;;
33138;SDS011;19501;50.948;5.316;2023-07-20T00:57:31;17.42;;;6.75;;
33138;SDS011;19501;50.948;5.316;2023-07-20T00:59:57;17.92;;;6.53;;
33138;SDS011;19501;50.948;5.316;2023-07-20T01:02:23;20.05;;;7.07;;
33138;SDS011;19501;50.948;5.316;2023-07-20T01:04:49;19.15;;;6.55;;
33138;SDS011;19501;50.948;5.316;2023-07-20T01:07:17;16.48;;;6.90;;
33138;SDS011;19501;50.948;5.316;2023-07-20T01:12:51;20.70;;;7.10;;
33138;SDS011;19501;50.948;5.316;2023-07-20T01:15:18;21.77;;;7.22;;
33138;SDS011;19501;50.948;5.316;2023-07-20T01:17:44;18.63;;;7.30;;
33138;SDS011;19501;50.948;5.316;2023-07-20T01:20:15;22.75;;;6.72;;
33138;SDS011;19501;50.948;5.316;2023-07-20T01:25:45;19.55;;;7.05;;
33138;SDS011;19501;50.948;5.316;2023-07-20T01:31:19;23.65;;;9.07;;
33138;SDS011;19501;50.948;5.316;2023-07-20T01:33:50;20.08;;;6.68;;
33138;SDS011;19501;50.948;5.316;2023-07-20T01:36:22;16.38;;;6.32;;
33138;SDS011;19501;50.948;5.316;2023-07-20T01:38:49;19.73;;;6.88;;
33138;SDS011;19501;50.948;5.316;2023-07-20T01:41:16;23.45;;;6.45;;
33138;SDS011;19501;50.948;5.316;2023-07-20T01:43:43;17.85;;;6.32;;
33138;SDS011;19501;50.948;5.316;2023-07-20T01:46:08;16.95;;;6.20;;
33138;SDS011;19501;50.948;5.316;2023-07-20T01:48:34;23.83;;;7.13;;
33138;SDS011;19501;50.948;5.316;2023-07-20T01:51:00;19.17;;;6.80;;
33138;SDS011;19501;50.948;5.316;2023-07-20T01:53:28;17.80;;;6.38;;
33138;SDS011;19501;50.948;5.316;2023-07-20T01:55:53;17.75;;;6.60;;
33138;SDS011;19501;50.948;5.316;2023-07-20T01:58:19;16.48;;;6.55;;
33138;SDS011;19501;50.948;5.316;2023-07-20T02:00:45;21.95;;;6.80;;
33138;SDS011;19501;50.948;5.316;2023-07-20T02:03:11;19.67;;;6.90;;
33138;SDS011;19501;50.948;5.316;2023-07-20T02:05:37;19.40;;;6.88;;
33138;SDS011;19501;50.948;5.316;2023-07-20T02:08:03;19.02;;;6.97;;
33138;SDS011;19501;50.948;5.316;2023-07-20T02:10:31;24.55;;;7.05;;
33138;SDS011;19501;50.948;5.316;2023-07-20T02:12:59;18.23;;;6.22;;
33138;SDS011;19501;50.948;5.316;2023-07-20T02:15:24;20.08;;;6.55;;
33138;SDS011;19501;50.948;5.316;2023-07-20T02:17:53;21.10;;;7.45;;
33138;SDS011;19501;50.948;5.316;2023-07-20T02:20:19;19.48;;;6.22;;
33138;SDS011;19501;50.948;5.316;2023-07-20T02:22:45;21.60;;;6.60;;
33138;SDS011;19501;50.948;5.316;2023-07-20T02:25:13;18.27;;;6.35;;
33138;SDS011;19501;50.948;5.316;2023-07-20T02:27:39;25.80;;;6.90;;
33138;SDS011;19501;50.948;5.316;2023-07-20T02:30:04;22.88;;;6.82;;
33138;SDS011;19501;50.948;5.316;2023-07-20T02:32:31;20.83;;;6.47;;
33138;SDS011;19501;50.948;5.316;2023-07-20T02:34:57;21.55;;;7.05;;
33138;SDS011;19501;50.948;5.316;2023-07-20T02:37:25;23.98;;;7.03;;
33138;SDS011;19501;50.948;5.316;2023-07-20T02:39:51;20.13;;;6.80;;
33138;SDS011;19501;50.948;5.316;2023-07-20T02:42:17;25.50;;;8.10;;
33138;SDS011;19501;50.948;5.316;2023-07-20T02:44:42;22.75;;;7.50;;
33138;SDS011;19501;50.948;5.316;2023-07-20T02:47:08;23.52;;;7.30;;
33138;SDS011;19501;50.948;5.316;2023-07-20T02:49:34;21.85;;;8.35;;
33138;SDS011;19501;50.948;5.316;2023-07-20T02:52:00;21.33;;;7.43;;
33138;SDS011;19501;50.948;5.316;2023-07-20T02:54:25;21.33;;;6.95;;
33138;SDS011;19501;50.948;5.316;2023-07-20T02:56:51;20.90;;;7.82;;
33138;SDS011;19501;50.948;5.316;2023-07-20T02:59:17;22.27;;;7.70;;
33138;SDS011;19501;50.948;5.316;2023-07-20T03:01:43;25.75;;;7.15;;
33138;SDS011;19501;50.948;5.316;2023-07-20T03:04:11;22.83;;;7.72;;
33138;SDS011;19501;50.948;5.316;2023-07-20T03:06:37;24.13;;;8.10;;
33138;SDS011;19501;50.948;5.316;2023-07-20T03:09:03;21.67;;;7.97;;
33138;SDS011;19501;50.948;5.316;2023-07-20T03:11:29;22.23;;;7.53;;
33138;SDS011;19501;50.948;5.316;2023-07-20T03:13:55;25.27;;;8.77;;
33138;SDS011;19501;50.948;5.316;2023-07-20T03:16:21;22.83;;;8.65;;
33138;SDS011;19501;50.948;5.316;2023-07-20T03:18:48;25.73;;;7.85;;
33138;SDS011;19501;50.948;5.316;2023-07-20T03:21:14;20.73;;;7.45;;
33138;SDS011;19501;50.948;5.316;2023-07-20T03:23:40;27.20;;;8.32;;
33138;SDS011;19501;50.948;5.316;2023-07-20T03:26:06;24.83;;;8.38;;
33138;SDS011;19501;50.948;5.316;2023-07-20T03:28:37;24.52;;;7.32;;
33138;SDS011;19501;50.948;5.316;2023-07-20T03:31:04;26.75;;;9.07;;
33138;SDS011;19501;50.948;5.316;2023-07-20T03:33:30;20.77;;;7.85;;
33138;SDS011;19501;50.948;5.316;2023-07-20T03:35:57;23.90;;;8.70;;
33138;SDS011;19501;50.948;5.316;2023-07-20T03:38:24;26.30;;;7.88;;
33138;SDS011;19501;50.948;5.316;2023-07-20T03:40:57;21.35;;;7.50;;
33138;SDS011;19501;50.948;5.316;2023-07-20T03:43:24;20.42;;;7.50;;
33138;SDS011;19501;50.948;5.316;2023-07-20T03:45:51;25.45;;;7.25;;
33138;SDS011;19501;50.948;5.316;2023-07-20T03:48:21;23.83;;;8.18;;
33138;SDS011;19501;50.948;5.316;2023-07-20T03:50:48;27.50;;;7.97;;
33138;SDS011;19501;50.948;5.316;2023-07-20T03:53:15;20.90;;;6.95;;
33138;SDS011;19501;50.948;5.316;2023-07-20T03:55:44;22.70;;;7.55;;
33138;SDS011;19501;50.948;5.316;2023-07-20T03:58:11;26.90;;;8.80;;
33138;SDS011;19501;50.948;5.316;2023-07-20T04:00:38;20.50;;;6.63;;
33138;SDS011;19501;50.948;5.316;2023-07-20T04:03:03;23.38;;;8.10;;
33138;SDS011;19501;50.948;5.316;2023-07-20T04:05:29;19.13;;;7.55;;
33138;SDS011;19501;50.948;5.316;2023-07-20T04:07:56;28.48;;;8.57;;
33138;SDS011;19501;50.948;5.316;2023-07-20T04:10:21;24.38;;;8.25;;
33138;SDS011;19501;50.948;5.316;2023-07-20T04:12:49;21.60;;;7.97;;
33138;SDS011;19501;50.948;5.316;2023-07-20T04:15:15;23.08;;;7.70;;
33138;SDS011;19501;50.948;5.316;2023-07-20T04:17:41;20.80;;;7.72;;
33138;SDS011;19501;50.948;5.316;2023-07-20T04:20:07;23.85;;;8.75;;
33138;SDS011;19501;50.948;5.316;2023-07-20T04:22:33;24.30;;;8.07;;
33138;SDS011;19501;50.948;5.316;2023-07-20T04:24:59;19.38;;;7.90;;
33138;SDS011;19501;50.948;5.316;2023-07-20T04:27:24;23.33;;;8.55;;
33138;SDS011;19501;50.948;5.316;2023-07-20T04:29:51;21.45;;;7.82;;
33138;SDS011;19501;50.948;5.316;2023-07-20T04:32:16;23.15;;;7.82;;
33138;SDS011;19501;50.948;5.316;2023-07-20T04:34:42;28.17;;;10.18;;
33138;SDS011;19501;50.948;5.316;2023-07-20T04:37:08;21.73;;;7.55;;
33138;SDS011;19501;50.948;5.316;2023-07-20T04:39:33;28.88;;;9.73;;
33138;SDS011;19501;50.948;5.316;2023-07-20T04:41:59;23.80;;;9.30;;
33138;SDS011;19501;50.948;5.316;2023-07-20T04:44:25;24.08;;;9.70;;
33138;SDS011;19501;50.948;5.316;2023-07-20T04:46:50;27.52;;;10.57;;
33138;SDS011;19501;50.948;5.316;2023-07-20T04:49:16;24.92;;;10.82;;
33138;SDS011;19501;50.948;5.316;2023-07-20T04:51:42;27.40;;;11.25;;
33138;SDS011;19501;50.948;5.316;2023-07-20T04:54:07;25.73;;;9.98;;
33138;SDS011;19501;50.948;5.316;2023-07-20T04:56:33;29.08;;;11.27;;
33138;SDS011;19501;50.948;5.316;2023-07-20T04:58:59;30.40;;;12.13;;
33138;SDS011;19501;50.948;5.316;2023-07-20T05:01:24;26.30;;;11.82;;
33138;SDS011;19501;50.948;5.316;2023-07-20T05:03:51;31.65;;;12.40;;
33138;SDS011;19501;50.948;5.316;2023-07-20T05:06:17;32.28;;;12.70;;
33138;SDS011;19501;50.948;5.316;2023-07-20T05:08:43;29.95;;;13.65;;
33138;SDS011;19501;50.948;5.316;2023-07-20T05:11:09;32.97;;;14.13;;
33138;SDS011;19501;50.948;5.316;2023-07-20T05:13:36;27.52;;;12.85;;
33138;SDS011;19501;50.948;5.316;2023-07-20T05:16:01;33.03;;;14.68;;
33138;SDS011;19501;50.948;5.316;2023-07-20T05:18:27;30.38;;;13.60;;
33138;SDS011;19501;50.948;5.316;2023-07-20T05:20:53;30.25;;;13.85;;
33138;SDS011;19501;50.948;5.316;2023-07-20T05:23:20;33.65;;;13.52;;
33138;SDS011;19501;50.948;5.316;2023-07-20T05:25:46;33.13;;;13.68;;
33138;SDS011;19501;50.948;5.316;2023-07-20T05:28:12;30.13;;;13.57;;
33138;SDS011;19501;50.948;5.316;2023-07-20T05:30:39;31.15;;;14.73;;
33138;SDS011;19501;50.948;5.316;2023-07-20T05:33:05;30.23;;;14.50;;
33138;SDS011;19501;50.948;5.316;2023-07-20T05:35:30;37.65;;;16.00;;
33138;SDS011;19501;50.948;5.316;2023-07-20T05:37:56;35.00;;;16.60;;
33138;SDS011;19501;50.948;5.316;2023-07-20T05:40:22;29.88;;;15.48;;
33138;SDS011;19501;50.948;5.316;2023-07-20T05:42:48;36.90;;;16.52;;
33138;SDS011;19501;50.948;5.316;2023-07-20T05:45:17;38.42;;;16.73;;
33138;SDS011;19501;50.948;5.316;2023-07-20T05:47:43;30.60;;;15.38;;
33138;SDS011;19501;50.948;5.316;2023-07-20T05:50:11;33.90;;;16.73;;
33138;SDS011;19501;50.948;5.316;2023-07-20T05:52:36;35.80;;;17.38;;
33138;SDS011;19501;50.948;5.316;2023-07-20T05:55:04;34.45;;;18.33;;
33138;SDS011;19501;50.948;5.316;2023-07-20T05:57:30;38.70;;;20.30;;
33138;SDS011;19501;50.948;5.316;2023-07-20T05:59:55;35.97;;;19.10;;
33138;SDS011;19501;50.948;5.316;2023-07-20T06:02:21;38.80;;;20.95;;
33138;SDS011;19501;50.948;5.316;2023-07-20T06:04:47;37.63;;;19.65;;
33138;SDS011;19501;50.948;5.316;2023-07-20T06:07:12;35.72;;;18.75;;
33138;SDS011;19501;50.948;5.316;2023-07-20T06:09:38;37.75;;;18.08;;
33138;SDS011;19501;50.948;5.316;2023-07-20T06:12:04;36.72;;;18.83;;
33138;SDS011;19501;50.948;5.316;2023-07-20T06:14:30;40.28;;;18.73;;
33138;SDS011;19501;50.948;5.316;2023-07-20T06:16:56;35.72;;;19.35;;
33138;SDS011;19501;50.948;5.316;2023-07-20T06:19:24;40.47;;;19.38;;
33138;SDS011;19501;50.948;5.316;2023-07-20T06:21:49;36.38;;;19.17;;
33138;SDS011;19501;50.948;5.316;2023-07-20T06:24:16;35.60;;;18.17;;
33138;SDS011;19501;50.948;5.316;2023-07-20T06:26:42;39.25;;;18.42;;
33138;SDS011;19501;50.948;5.316;2023-07-20T06:29:08;37.55;;;18.55;;
33138;SDS011;19501;50.948;5.316;2023-07-20T06:31:36;39.00;;;18.85;;
33138;SDS011;19501;50.948;5.316;2023-07-20T06:34:02;35.65;;;19.85;;
33138;SDS011;19501;50.948;5.316;2023-07-20T06:36:28;37.55;;;19.48;;
33138;SDS011;19501;50.948;5.316;2023-07-20T06:38:55;34.42;;;18.88;;
33138;SDS011;19501;50.948;5.316;2023-07-20T06:41:21;36.58;;;20.27;;
33138;SDS011;19501;50.948;5.316;2023-07-20T06:43:47;35.42;;;19.15;;
33138;SDS011;19501;50.948;5.316;2023-07-20T06:46:13;34.63;;;18.88;;
33138;SDS011;19501;50.948;5.316;2023-07-20T06:48:39;31.08;;;18.17;;
33138;SDS011;19501;50.948;5.316;2023-07-20T06:51:04;33.95;;;19.15;;
33138;SDS011;19501;50.948;5.316;2023-07-20T06:53:30;32.95;;;17.92;;
33138;SDS011;19501;50.948;5.316;2023-07-20T06:55:56;33.70;;;17.92;;
33138;SDS011;19501;50.948;5.316;2023-07-20T06:58:25;36.70;;;18.73;;
33138;SDS011;19501;50.948;5.316;2023-07-20T07:00:53;34.47;;;18.92;;
33138;SDS011;19501;50.948;5.316;2023-07-20T07:03:19;34.17;;;18.13;;
33138;SDS011;19501;50.948;5.316;2023-07-20T07:05:44;33.85;;;19.23;;
33138;SDS011;19501;50.948;5.316;2023-07-20T07:08:10;34.28;;;19.45;;
33138;SDS011;19501;50.948;5.316;2023-07-20T07:10:37;32.45;;;18.10;;
33138;SDS011;19501;50.948;5.316;2023-07-20T07:13:03;33.58;;;19.50;;
33138;SDS011;19501;50.948;5.316;2023-07-20T07:15:29;31.27;;;18.30;;
33138;SDS011;19501;50.948;5.316;2023-07-20T07:17:57;32.90;;;18.67;;
33138;SDS011;19501;50.948;5.316;2023-07-20T07:20:24;31.38;;;18.67;;
33138;SDS011;19501;50.948;5.316;2023-07-20T07:22:50;33.38;;;19.65;;
33138;SDS011;19501;50.948;5.316;2023-07-20T07:25:17;32.33;;;18.25;;
33138;SDS011;19501;50.948;5.316;2023-07-20T07:27:42;37.92;;;18.80;;
33138;SDS011;19501;50.948;5.316;2023-07-20T07:30:08;30.98;;;17.75;;
33138;SDS011;19501;50.948;5.316;2023-07-20T07:32:34;30.42;;;17.55;;
33138;SDS011;19501;50.948;5.316;2023-07-20T07:35:00;33.40;;;17.20;;
33138;SDS011;19501;50.948;5.316;2023-07-20T07:37:26;31.17;;;16.95;;
33138;SDS011;19501;50.948;5.316;2023-07-20T07:39:51;31.65;;;16.85;;
33138;SDS011;19501;50.948;5.316;2023-07-20T07:42:17;29.75;;;17.17;;
33138;SDS011;19501;50.948;5.316;2023-07-20T07:44:43;28.40;;;16.75;;
33138;SDS011;19501;50.948;5.316;2023-07-20T07:47:09;30.75;;;15.77;;
33138;SDS011;19501;50.948;5.316;2023-07-20T07:49:37;31.45;;;16.15;;
33138;SDS011;19501;50.948;5.316;2023-07-20T07:52:03;28.45;;;15.93;;
33138;SDS011;19501;50.948;5.316;2023-07-20T07:54:29;27.52;;;15.77;;
33138;SDS011;19501;50.948;5.316;2023-07-20T07:56:55;28.77;;;15.57;;
33138;SDS011;19501;50.948;5.316;2023-07-20T07:59:21;29.83;;;15.48;;
33138;SDS011;19501;50.948;5.316;2023-07-20T08:01:47;31.10;;;15.50;;
33138;SDS011;19501;50.948;5.316;2023-07-20T08:04:13;26.58;;;14.80;;
33138;SDS011;19501;50.948;5.316;2023-07-20T08:06:39;25.75;;;13.95;;
33138;SDS011;19501;50.948;5.316;2023-07-20T08:09:04;30.10;;;15.88;;
33138;SDS011;19501;50.948;5.316;2023-07-20T08:11:30;27.38;;;15.43;;
33138;SDS011;19501;50.948;5.316;2023-07-20T08:13:59;27.85;;;14.60;;
33138;SDS011;19501;50.948;5.316;2023-07-20T08:16:25;28.40;;;14.05;;
33138;SDS011;19501;50.948;5.316;2023-07-20T08:18:51;26.45;;;13.27;;
33138;SDS011;19501;50.948;5.316;2023-07-20T08:21:17;29.25;;;13.77;;
33138;SDS011;19501;50.948;5.316;2023-07-20T08:23:42;23.52;;;12.48;;
33138;SDS011;19501;50.948;5.316;2023-07-20T08:26:08;22.40;;;12.50;;
33138;SDS011;19501;50.948;5.316;2023-07-20T08:28:36;24.88;;;12.93;;
33138;SDS011;19501;50.948;5.316;2023-07-20T08:31:02;24.10;;;11.70;;
33138;SDS011;19501;50.948;5.316;2023-07-20T08:33:30;22.58;;;12.15;;
33138;SDS011;19501;50.948;5.316;2023-07-20T08:35:58;22.38;;;11.23;;
33138;SDS011;19501;50.948;5.316;2023-07-20T08:38:26;21.70;;;11.25;;
33138;SDS011;19501;50.948;5.316;2023-07-20T08:40:51;23.77;;;12.88;;
33138;SDS011;19501;50.948;5.316;2023-07-20T08:43:19;24.20;;;12.50;;
33138;SDS011;19501;50.948;5.316;2023-07-20T08:45:49;22.23;;;12.13;;
33138;SDS011;19501;50.948;5.316;2023-07-20T08:48:16;22.33;;;12.00;;
33138;SDS011;19501;50.948;5.316;2023-07-20T08:50:43;20.42;;;10.40;;
33138;SDS011;19501;50.948;5.316;2023-07-20T08:53:10;21.88;;;11.70;;
33138;SDS011;19501;50.948;5.316;2023-07-20T08:55:40;20.30;;;9.75;;
33138;SDS011;19501;50.948;5.316;2023-07-20T08:58:09;18.45;;;9.82;;
33138;SDS011;19501;50.948;5.316;2023-07-20T09:00:37;23.85;;;11.25;;
33138;SDS011;19501;50.948;5.316;2023-07-20T09:03:04;20.13;;;9.15;;
33138;SDS011;19501;50.948;5.316;2023-07-20T09:05:30;14.25;;;7.10;;
33138;SDS011;19501;50.948;5.316;2023-07-20T09:07:56;16.55;;;8.07;;
33138;SDS011;19501;50.948;5.316;2023-07-20T09:10:22;13.48;;;6.63;;
33138;SDS011;19501;50.948;5.316;2023-07-20T09:12:48;15.15;;;7.65;;
33138;SDS011;19501;50.948;5.316;2023-07-20T09:15:14;19.77;;;7.80;;
33138;SDS011;19501;50.948;5.316;2023-07-20T09:17:48;20.02;;;8.48;;
33138;SDS011;19501;50.948;5.316;2023-07-20T09:20:15;15.02;;;6.93;;
33138;SDS011;19501;50.948;5.316;2023-07-20T09:22:42;16.73;;;6.47;;
33138;SDS011;19501;50.948;5.316;2023-07-20T09:27:45;13.02;;;6.45;;
33138;SDS011;19501;50.948;5.316;2023-07-20T09:30:13;14.40;;;6.38;;
33138;SDS011;19501;50.948;5.316;2023-07-20T09:32:40;13.73;;;6.95;;
33138;SDS011;19501;50.948;5.316;2023-07-20T09:35:19;14.75;;;6.38;;
33138;SDS011;19501;50.948;5.316;2023-07-20T09:37:47;15.02;;;6.38;;
33138;SDS011;19501;50.948;5.316;2023-07-20T09:40:24;13.70;;;5.88;;
33138;SDS011;19501;50.948;5.316;2023-07-20T09:42:51;12.02;;;5.80;;
33138;SDS011;19501;50.948;5.316;2023-07-20T09:45:29;11.40;;;5.97;;
33138;SDS011;19501;50.948;5.316;2023-07-20T09:48:03;15.98;;;7.03;;
33138;SDS011;19501;50.948;5.316;2023-07-20T09:50:30;14.25;;;6.15;;
33138;SDS011;19501;50.948;5.316;2023-07-20T09:52:56;14.10;;;6.00;;
33138;SDS011;19501;50.948;5.316;2023-07-20T09:55:22;12.55;;;5.57;;
33138;SDS011;19501;50.948;5.316;2023-07-20T09:57:49;10.85;;;5.47;;
33138;SDS011;19501;50.948;5.316;2023-07-20T10:00:18;11.07;;;5.65;;
33138;SDS011;19501;50.948;5.316;2023-07-20T10:02:46;15.38;;;5.50;;
33138;SDS011;19501;50.948;5.316;2023-07-20T10:05:14;10.65;;;5.63;;
33138;SDS011;19501;50.948;5.316;2023-07-20T10:07:46;9.48;;;4.95;;
33138;SDS011;19501;50.948;5.316;2023-07-20T10:10:17;11.88;;;5.70;;
33138;SDS011;19501;50.948;5.316;2023-07-20T10:12:47;13.75;;;5.90;;
33138;SDS011;19501;50.948;5.316;2023-07-20T10:15:16;11.82;;;5.55;;
33138;SDS011;19501;50.948;5.316;2023-07-20T10:17:47;9.10;;;4.68;;
33138;SDS011;19501;50.948;5.316;2023-07-20T10:20:33;14.30;;;5.95;;
33138;SDS011;19501;50.948;5.316;2023-07-20T10:23:04;11.43;;;5.03;;
33138;SDS011;19501;50.948;5.316;2023-07-20T10:25:30;8.75;;;4.88;;
33138;SDS011;19501;50.948;5.316;2023-07-20T10:27:57;11.13;;;4.80;;
33138;SDS011;19501;50.948;5.316;2023-07-20T10:30:24;15.25;;;7.68;;
33138;SDS011;19501;50.948;5.316;2023-07-20T10:32:51;9.30;;;4.80;;
33138;SDS011;19501;50.948;5.316;2023-07-20T10:35:17;11.60;;;4.85;;
33138;SDS011;19501;50.948;5.316;2023-07-20T10:43:04;8.18;;;4.72;;
33138;SDS011;19501;50.948;5.316;2023-07-20T10:48:21;9.20;;;4.95;;
33138;SDS011;19501;50.948;5.316;2023-07-20T10:53:34;8.07;;;4.35;;
33138;SDS011;19501;50.948;5.316;2023-07-20T10:56:33;11.57;;;5.53;;
33138;SDS011;19501;50.948;5.316;2023-07-20T10:58:59;8.48;;;4.30;;
33138;SDS011;19501;50.948;5.316;2023-07-20T11:01:29;11.13;;;6.07;;
33138;SDS011;19501;50.948;5.316;2023-07-20T11:11:23;7.37;;;4.53;;
33138;SDS011;19501;50.948;5.316;2023-07-20T11:14:09;18.88;;;4.55;;
33138;SDS011;19501;50.948;5.316;2023-07-20T11:16:59;7.50;;;3.78;;
33138;SDS011;19501;50.948;5.316;2023-07-20T11:19:40;7.75;;;3.60;;
33138;SDS011;19501;50.948;5.316;2023-07-20T11:22:06;10.45;;;4.55;;
33138;SDS011;19501;50.948;5.316;2023-07-20T11:24:38;8.88;;;4.43;;
33138;SDS011;19501;50.948;5.316;2023-07-20T11:27:05;7.10;;;4.25;;
33138;SDS011;19501;50.948;5.316;2023-07-20T11:29:30;7.55;;;4.03;;
33138;SDS011;19501;50.948;5.316;2023-07-20T11:31:56;7.80;;;3.97;;
33138;SDS011;19501;50.948;5.316;2023-07-20T11:34:24;6.38;;;3.60;;
33138;SDS011;19501;50.948;5.316;2023-07-20T11:36:50;8.63;;;3.60;;
33138;SDS011;19501;50.948;5.316;2023-07-20T11:39:17;7.95;;;3.63;;
33138;SDS011;19501;50.948;5.316;2023-07-20T11:41:57;7.10;;;4.32;;
33138;SDS011;19501;50.948;5.316;2023-07-20T11:44:24;7.70;;;4.70;;
33138;SDS011;19501;50.948;5.316;2023-07-20T11:47:00;9.45;;;4.97;;
33138;SDS011;19501;50.948;5.316;2023-07-20T11:49:40;5.75;;;3.72;;
33138;SDS011;19501;50.948;5.316;2023-07-20T11:52:07;6.85;;;4.30;;
33138;SDS011;19501;50.948;5.316;2023-07-20T11:54:34;9.65;;;4.25;;
33138;SDS011;19501;50.948;5.316;2023-07-20T11:57:01;6.07;;;4.03;;
33138;SDS011;19501;50.948;5.316;2023-07-20T11:59:27;9.65;;;4.13;;
33138;SDS011;19501;50.948;5.316;2023-07-20T12:01:53;6.38;;;3.70;;
33138;SDS011;19501;50.948;5.316;2023-07-20T12:04:18;7.75;;;4.00;;
33138;SDS011;19501;50.948;5.316;2023-07-20T12:06:45;4.93;;;3.40;;
33138;SDS011;19501;50.948;5.316;2023-07-20T12:09:15;5.15;;;3.70;;
33138;SDS011;19501;50.948;5.316;2023-07-20T12:11:42;7.43;;;3.72;;
33138;SDS011;19501;50.948;5.316;2023-07-20T12:14:12;6.20;;;3.38;;
33138;SDS011;19501;50.948;5.316;2023-07-20T12:16:38;7.20;;;4.00;;
33138;SDS011;19501;50.948;5.316;2023-07-20T12:19:07;7.10;;;3.40;;
33138;SDS011;19501;50.948;5.316;2023-07-20T12:21:35;7.22;;;3.90;;
33138;SDS011;19501;50.948;5.316;2023-07-20T12:24:02;8.35;;;3.80;;
33138;SDS011;19501;50.948;5.316;2023-07-20T12:26:29;7.60;;;4.30;;
33138;SDS011;19501;50.948;5.316;2023-07-20T12:28:55;7.93;;;4.45;;
33138;SDS011;19501;50.948;5.316;2023-07-20T12:31:24;5.65;;;3.63;;
33138;SDS011;19501;50.948;5.316;2023-07-20T12:33:51;7.05;;;3.35;;
33138;SDS011;19501;50.948;5.316;2023-07-20T12:36:18;4.72;;;3.28;;
33138;SDS011;19501;50.948;5.316;2023-07-20T12:38:44;5.28;;;3.63;;
33138;SDS011;19501;50.948;5.316;2023-07-20T12:41:10;6.03;;;3.40;;
33138;SDS011;19501;50.948;5.316;2023-07-20T12:43:38;6.72;;;3.92;;
33138;SDS011;19501;50.948;5.316;2023-07-20T12:46:05;6.18;;;3.28;;
33138;SDS011;19501;50.948;5.316;2023-07-20T12:48:30;5.47;;;3.20;;
33138;SDS011;19501;50.948;5.316;2023-07-20T12:50:56;7.47;;;3.55;;
33138;SDS011;19501;50.948;5.316;2023-07-20T12:53:22;8.68;;;3.58;;
33138;SDS011;19501;50.948;5.316;2023-07-20T12:55:48;7.22;;;3.28;;
33138;SDS011;19501;50.948;5.316;2023-07-20T12:58:13;4.93;;;3.53;;
33138;SDS011;19501;50.948;5.316;2023-07-20T13:00:39;5.30;;;3.38;;
33138;SDS011;19501;50.948;5.316;2023-07-20T13:03:05;8.05;;;3.22;;
33138;SDS011;19501;50.948;5.316;2023-07-20T13:05:33;5.75;;;3.17;;
33138;SDS011;19501;50.948;5.316;2023-07-20T13:08:00;6.47;;;3.97;;
33138;SDS011;19501;50.948;5.316;2023-07-20T13:10:25;8.68;;;3.45;;
33138;SDS011;19501;50.948;5.316;2023-07-20T13:12:51;4.68;;;3.40;;
33138;SDS011;19501;50.948;5.316;2023-07-20T13:15:17;11.27;;;3.78;;
33138;SDS011;19501;50.948;5.316;2023-07-20T13:17:43;5.50;;;3.20;;
33138;SDS011;19501;50.948;5.316;2023-07-20T13:20:10;4.85;;;3.40;;
33138;SDS011;19501;50.948;5.316;2023-07-20T13:22:39;5.55;;;3.40;;
33138;SDS011;19501;50.948;5.316;2023-07-20T13:25:07;5.78;;;3.58;;
33138;SDS011;19501;50.948;5.316;2023-07-20T13:27:34;5.82;;;3.10;;
33138;SDS011;19501;50.948;5.316;2023-07-20T13:30:01;4.38;;;3.17;;
33138;SDS011;19501;50.948;5.316;2023-07-20T13:32:31;8.02;;;3.33;;
33138;SDS011;19501;50.948;5.316;2023-07-20T13:34:57;7.57;;;3.40;;
33138;SDS011;19501;50.948;5.316;2023-07-20T13:37:23;5.57;;;3.22;;
33138;SDS011;19501;50.948;5.316;2023-07-20T13:39:52;4.90;;;3.22;;
33138;SDS011;19501;50.948;5.316;2023-07-20T13:42:17;7.72;;;3.60;;
33138;SDS011;19501;50.948;5.316;2023-07-20T13:44:43;5.68;;;3.28;;
33138;SDS011;19501;50.948;5.316;2023-07-20T13:47:09;7.45;;;3.17;;
33138;SDS011;19501;50.948;5.316;2023-07-20T13:49:34;5.68;;;2.90;;
33138;SDS011;19501;50.948;5.316;2023-07-20T13:52:00;4.75;;;2.50;;
33138;SDS011;19501;50.948;5.316;2023-07-20T13:54:25;4.18;;;2.70;;
33138;SDS011;19501;50.948;5.316;2023-07-20T13:56:54;4.65;;;2.50;;
33138;SDS011;19501;50.948;5.316;2023-07-20T13:59:19;4.80;;;2.60;;
33138;SDS011;19501;50.948;5.316;2023-07-20T14:01:45;5.32;;;2.72;;
33138;SDS011;19501;50.948;5.316;2023-07-20T14:04:11;5.80;;;3.05;;
33138;SDS011;19501;50.948;5.316;2023-07-20T14:06:37;5.68;;;2.72;;
33138;SDS011;19501;50.948;5.316;2023-07-20T14:09:02;4.00;;;2.60;;
33138;SDS011;19501;50.948;5.316;2023-07-20T14:11:30;3.67;;;2.50;;
33138;SDS011;19501;50.948;5.316;2023-07-20T14:13:58;5.03;;;2.78;;
33138;SDS011;19501;50.948;5.316;2023-07-20T14:16:24;4.38;;;2.45;;
33138;SDS011;19501;50.948;5.316;2023-07-20T14:18:50;4.10;;;2.40;;
33138;SDS011;19501;50.948;5.316;2023-07-20T14:21:16;4.50;;;2.47;;
33138;SDS011;19501;50.948;5.316;2023-07-20T14:23:44;3.22;;;2.17;;
33138;SDS011;19501;50.948;5.316;2023-07-20T14:26:11;2.58;;;2.20;;
33138;SDS011;19501;50.948;5.316;2023-07-20T14:28:37;2.83;;;2.20;;
33138;SDS011;19501;50.948;5.316;2023-07-20T14:31:03;4.20;;;2.50;;
33138;SDS011;19501;50.948;5.316;2023-07-20T14:33:30;4.65;;;2.30;;
33138;SDS011;19501;50.948;5.316;2023-07-20T14:35:55;2.70;;;2.17;;
33138;SDS011;19501;50.948;5.316;2023-07-20T14:38:21;5.10;;;2.25;;
33138;SDS011;19501;50.948;5.316;2023-07-20T14:40:47;5.90;;;2.70;;
33138;SDS011;19501;50.948;5.316;2023-07-20T14:43:12;4.78;;;2.50;;
33138;SDS011;19501;50.948;5.316;2023-07-20T14:45:39;4.28;;;3.10;;
33138;SDS011;19501;50.948;5.316;2023-07-20T14:48:06;2.55;;;2.20;;
33138;SDS011;19501;50.948;5.316;2023-07-20T14:50:32;3.30;;;2.25;;
33138;SDS011;19501;50.948;5.316;2023-07-20T14:52:58;3.30;;;2.40;;
33138;SDS011;19501;50.948;5.316;2023-07-20T14:55:23;2.47;;;2.20;;
33138;SDS011;19501;50.948;5.316;2023-07-20T14:57:50;2.58;;;2.20;;
33138;SDS011;19501;50.948;5.316;2023-07-20T15:00:16;2.92;;;2.28;;
33138;SDS011;19501;50.948;5.316;2023-07-20T15:02:42;5.88;;;2.50;;